Time;durP1;ratioP1;P1;durP2;ratioP2;P2;SDS_P1;SDS_P2;PMS_P1;PMS_P2;Temp;Humidity;BMP_temperature;BMP_pressure;BME280_temperature;BME280_humidity;BME280_pressure;Samples;Min_cycle;Max_cycle;Signal;HPM_P1;HPM_P2
2021/12/10 00:01:40;;;;;;;25.15;17.25;;;;;;;15.41;44.84;92053.06;4973399;28;20048;-85
2021/12/10 00:04:05;;;;;;;;;;;;;;;15.44;44.76;92044.56;4987322;28;20061;-84
2021/12/10 00:06:35;;;;;;;19.52;14.23;;;;;;;15.40;44.87;92038.69;4988863;28;19918;-84
2021/12/10 00:09:07;;;;;;;26.05;17.95;;;;;;;15.41;44.98;92042.91;4987614;28;20533;-84
2021/12/10 00:11:36;;;;;;;22.75;15.27;;;;;;;15.42;44.71;92038.19;4970383;28;20037;-84
2021/12/10 00:14:02;;;;;;;21.67;14.05;;;;;;;15.40;44.79;92035.25;4987310;28;20465;-84
2021/12/10 00:16:27;;;;;;;24.80;17.83;;;;;;;15.39;45.00;92042.69;4970808;28;20049;-87
2021/12/10 00:19:04;;;;;;;20.27;15.65;;;;;;;15.39;44.99;92053.56;4971119;28;20046;-84
2021/12/10 00:21:30;;;;;;;21.90;14.57;;;;;;;15.41;44.74;92047.59;4957252;28;20129;-84
2021/12/10 00:23:56;;;;;;;22.52;15.35;;;;;;;15.44;44.61;92041.13;4967421;28;20034;-84
2021/12/10 00:26:22;;;;;;;20.52;14.30;;;;;;;15.37;45.00;92030.88;4982492;28;20673;-84
2021/12/10 00:28:47;;;;;;;17.48;13.07;;;;;;;15.40;44.75;92041.44;5000452;28;20043;-84
2021/12/10 00:31:30;;;;;;;21.42;15.35;;;;;;;15.47;44.82;92036.63;4999159;28;20124;-84
2021/12/10 00:33:59;;;;;;;25.95;16.75;;;;;;;15.40;44.79;92030.53;4996717;28;20042;-84
2021/12/10 00:36:24;;;;;;;26.08;16.95;;;;;;;15.40;44.95;92016.19;5005677;28;20030;-84
2021/12/10 00:38:51;;;;;;;17.67;12.77;;;;;;;15.47;44.71;92029.19;4955003;28;20444;-85
2021/12/10 00:41:16;;;;;;;19.88;13.02;;;;;;;15.41;44.84;92017.66;4963508;28;20065;-84
2021/12/10 00:43:41;;;;;;;18.95;12.93;;;;;;;15.48;44.79;92021.75;4993067;28;20034;-84
2021/12/10 00:46:07;;;;;;;17.52;12.45;;;;;;;15.42;44.31;92017.13;5026688;28;20489;-84
2021/12/10 00:48:32;;;;;;;22.70;15.32;;;;;;;15.43;44.85;92015.13;5019495;28;20046;-84
2021/12/10 00:50:58;;;;;;;21.13;14.43;;;;;;;15.42;44.74;92016.41;4990585;28;20041;-84
2021/12/10 00:53:24;;;;;;;18.52;13.57;;;;;;;15.43;44.78;92004.25;4974051;28;20184;-84
2021/12/10 00:55:49;;;;;;;17.10;13.07;;;;;;;15.43;44.56;91999.53;4974374;28;20049;-87
2021/12/10 00:58:15;;;;;;;13.93;10.60;;;;;;;15.43;44.68;92007.69;4990627;28;20097;-84
2021/12/10 01:00:52;;;;;;;20.83;14.35;;;;;;;15.49;44.46;92007.59;4990209;28;20034;-84
2021/12/10 01:03:21;;;;;;;17.75;12.10;;;;;;;15.40;44.59;92014.19;4996933;28;20042;-83
2021/12/10 01:05:49;;;;;;;18.55;13.07;;;;;;;15.40;44.81;92013.47;4990847;28;20493;-87
2021/12/10 01:08:14;;;;;;;23.33;14.45;;;;;;;15.39;44.63;92010.00;5006315;28;20096;-83
2021/12/10 01:10:44;;;;;;;18.52;11.52;;;;;;;15.41;44.99;92001.31;4990764;28;20042;-84
2021/12/10 01:13:13;;;;;;;19.05;12.55;;;;;;;15.42;44.73;91995.34;4973350;28;20515;-84
2021/12/10 01:15:52;;;;;;;18.88;12.95;;;;;;;15.48;44.85;92003.41;4974473;28;20058;-84
2021/12/10 01:23:59;;;;;;;18.52;13.55;;;;;;;15.42;44.78;91992.63;4989953;28;20095;-84
2021/12/10 01:26:54;;;;;;;12.88;9.93;;;;;;;15.39;44.73;91982.78;4958160;28;20046;-84
2021/12/10 01:29:24;;;;;;;17.25;12.00;;;;;;;15.36;44.94;91978.41;4989841;28;20038;-84
2021/12/10 01:31:50;;;;;;;15.85;11.23;;;;;;;15.44;44.62;91973.78;4990319;28;20042;-87
2021/12/10 01:34:15;;;;;;;17.92;13.55;;;;;;;15.39;45.12;91977.34;4973441;28;20033;-84
2021/12/10 01:36:41;;;;;;;19.02;13.10;;;;;;;15.37;44.71;91977.13;4989571;28;20049;-84
2021/12/10 01:39:10;;;;;;;15.55;11.20;;;;;;;15.38;44.82;91970.41;4956746;28;20038;-84
2021/12/10 01:41:39;;;;;;;16.55;12.20;;;;;;;15.38;44.72;91964.97;5001919;28;20216;-84
2021/12/10 01:44:14;;;;;;;22.38;14.70;;;;;;;15.45;44.60;91971.78;5009056;28;20065;-84
2021/12/10 01:46:40;;;;;;;18.52;12.00;;;;;;;15.46;44.80;91962.34;5009790;28;20041;-84
2021/12/10 01:49:06;;;;;;;13.50;9.30;;;;;;;15.43;44.62;91955.22;4994116;28;20062;-86
2021/12/10 01:51:33;;;;;;;18.60;12.88;;;;;;;15.41;44.84;91955.03;4970377;28;20038;-84
2021/12/10 01:54:05;;;;;;;18.02;11.98;;;;;;;15.42;44.94;91956.50;5001181;28;20118;-85
2021/12/10 01:56:31;;;;;;;15.73;11.23;;;;;;;15.40;44.68;91951.56;5001508;28;20035;-84
2021/12/10 01:58:57;;;;;;;16.73;11.65;;;;;;;15.41;44.79;91944.13;4986141;28;20047;-84
2021/12/10 02:01:31;;;;;;;12.80;9.75;;;;;;;15.43;44.64;91933.44;4980455;28;20399;-84
2021/12/10 02:03:56;;;;;;;14.32;9.60;;;;;;;15.45;44.38;91928.22;4993961;28;20046;-84
2021/12/10 02:06:22;;;;;;;16.02;10.07;;;;;;;15.43;44.46;91922.56;5005393;28;20030;-84
2021/12/10 02:08:47;;;;;;;19.17;11.82;;;;;;;15.47;44.61;91912.06;4988011;28;20351;-84
2021/12/10 02:11:13;;;;;;;17.70;12.32;;;;;;;15.46;44.61;91926.22;4954653;28;20129;-84
2021/12/10 02:13:40;;;;;;;12.80;9.32;;;;;;;15.43;44.50;91909.69;4987330;28;20043;-84
2021/12/10 02:16:05;;;;;;;20.38;12.55;;;;;;;15.42;44.70;91910.19;5003949;28;20041;-83
2021/12/10 02:18:31;;;;;;;18.20;13.25;;;;;;;15.39;44.39;91911.97;4972662;28;20446;-84
2021/12/10 02:21:03;;;;;;;11.65;8.63;;;;;;;15.37;44.66;91903.59;4989081;28;20041;-84
2021/12/10 02:23:40;;;;;;;15.27;10.25;;;;;;;15.46;44.69;91904.44;5021297;28;20034;-84
2021/12/10 02:26:07;;;;;;;15.35;10.07;;;;;;;15.43;44.29;91906.94;5005768;28;20583;-85
2021/12/10 02:28:32;;;;;;;15.68;11.07;;;;;;;15.42;44.59;91893.88;5005597;28;20038;-84
2021/12/10 02:30:59;;;;;;;12.45;8.82;;;;;;;15.46;44.26;91894.28;4989150;28;20038;-84
2021/12/10 02:33:25;;;;;;;16.40;10.77;;;;;;;15.41;44.50;91890.41;4988462;28;20038;-89
2021/12/10 02:35:51;;;;;;;11.82;8.38;;;;;;;15.47;44.32;91882.13;4988069;28;20509;-84
2021/12/10 02:38:18;;;;;;;13.45;9.88;;;;;;;15.46;44.26;91883.38;4972417;28;20041;-86
2021/12/10 02:40:44;;;;;;;16.05;10.90;;;;;;;15.44;44.46;91872.28;4988732;28;20034;-84
2021/12/10 02:43:11;;;;;;;18.83;11.82;;;;;;;15.41;44.65;91874.06;4971809;28;20069;-85
2021/12/10 02:45:36;;;;;;;14.82;9.82;;;;;;;15.39;44.74;91871.13;4972311;28;20037;-83
2021/12/10 02:48:02;;;;;;;16.40;10.48;;;;;;;15.37;44.74;91870.94;4972143;28;20397;-84
2021/12/10 02:50:28;;;;;;;15.65;9.90;;;;;;;15.43;44.65;91863.38;4955958;28;20034;-84
2021/12/10 02:52:54;;;;;;;14.88;9.75;;;;;;;15.44;44.38;91855.94;5004763;28;20054;-84
2021/12/10 02:55:20;;;;;;;10.10;8.07;;;;;;;15.40;44.72;91848.09;4971489;28;20062;-84
2021/12/10 02:57:51;;;;;;;12.88;8.10;;;;;;;15.41;44.50;91848.84;4988667;28;20069;-84
2021/12/10 03:00:19;;;;;;;13.63;9.95;;;;;;;15.43;44.31;91849.78;4971972;28;20492;-84
2021/12/10 03:02:44;;;;;;;17.35;12.30;;;;;;;15.43;44.39;91843.59;4970999;28;20049;-89
2021/12/10 03:05:10;;;;;;;12.00;9.45;;;;;;;15.36;44.81;91836.09;4986886;28;20035;-83
2021/12/10 03:07:35;;;;;;;12.77;9.13;;;;;;;15.38;44.59;91837.00;4972255;28;20084;-84
2021/12/10 03:10:01;;;;;;;9.15;7.07;;;;;;;15.38;44.82;91831.56;4972264;28;20132;-88
2021/12/10 03:12:26;;;;;;;13.25;9.02;;;;;;;15.39;44.39;91829.56;4971932;28;20121;-84
2021/12/10 03:14:54;;;;;;;13.48;9.68;;;;;;;15.36;44.36;91828.66;4987178;28;20413;-84
2021/12/10 03:17:22;;;;;;;13.10;7.88;;;;;;;15.42;44.48;91831.97;4971993;28;20485;-87
2021/12/10 03:19:48;;;;;;;16.63;10.45;;;;;;;15.36;44.50;91833.38;4972010;28;20038;-84
2021/12/10 03:22:13;;;;;;;14.07;8.20;;;;;;;15.43;44.49;91836.16;4971661;28;20045;-84
2021/12/10 03:24:39;;;;;;;12.73;9.32;;;;;;;15.38;44.56;91833.56;4955211;28;20501;-85
2021/12/10 03:27:06;;;;;;;16.17;10.38;;;;;;;15.34;44.43;91833.91;4986828;28;20038;-83
2021/12/10 03:29:33;;;;;;;19.08;11.88;;;;;;;15.34;44.54;91831.19;4955809;28;20038;-83
2021/12/10 03:32:00;;;;;;;17.50;11.35;;;;;;;15.47;44.38;91832.38;4971829;28;20050;-84
2021/12/10 03:34:26;;;;;;;12.68;7.93;;;;;;;15.38;44.66;91830.81;4971382;28;20117;-84
2021/12/10 03:36:52;;;;;;;14.48;8.82;;;;;;;15.34;44.50;91828.44;4955522;28;20118;-89
2021/12/10 03:39:20;;;;;;;13.70;9.52;;;;;;;15.34;44.79;91825.00;4967202;28;20031;-83
2021/12/10 03:41:45;;;;;;;10.73;7.80;;;;;;;15.33;44.78;91818.09;5001424;28;20029;-84
2021/12/10 03:44:10;;;;;;;15.07;9.98;;;;;;;15.36;44.74;91809.59;4990556;28;20038;-84
2021/12/10 03:46:36;;;;;;;11.25;8.23;;;;;;;15.31;44.83;91810.44;5007277;28;20034;-84
2021/12/10 03:49:03;;;;;;;15.18;8.90;;;;;;;15.37;44.50;91804.88;4996443;28;20412;-85
2021/12/10 03:51:30;;;;;;;11.07;8.18;;;;;;;15.35;44.63;91812.84;4971052;28;20097;-84
2021/12/10 03:53:56;;;;;;;10.13;7.35;;;;;;;15.34;44.40;91811.38;4954830;28;20084;-84
2021/12/10 03:56:23;;;;;;;11.98;8.63;;;;;;;15.36;44.80;91806.16;4970579;28;24921;-84
2021/12/10 03:58:49;;;;;;;11.45;7.72;;;;;;;15.31;44.70;91813.16;4955270;28;20114;-85
2021/12/10 04:01:20;;;;;;;9.27;6.07;;;;;;;15.34;44.65;91805.94;4988450;28;20444;-84
2021/12/10 04:03:46;;;;;;;;;;;;;;;15.37;44.54;91808.31;4981358;28;20034;-85
2021/12/10 04:06:12;;;;;;;13.10;8.85;;;;;;;15.34;44.71;91792.31;5019397;28;20387;-84
2021/12/10 04:08:37;;;;;;;16.17;10.52;;;;;;;15.42;44.40;91801.28;4987508;28;20128;-83
2021/12/10 04:11:03;;;;;;;17.30;10.05;;;;;;;15.38;44.27;91798.88;4986397;28;20039;-83
2021/12/10 04:13:28;;;;;;;15.27;9.82;;;;;;;15.35;44.67;91791.06;4970500;28;20039;-85
2021/12/10 04:15:54;;;;;;;8.93;7.20;;;;;;;15.30;44.47;91789.19;4986882;28;20433;-85
2021/12/10 04:18:20;;;;;;;14.20;9.77;;;;;;;15.39;44.57;91786.72;4953897;28;20173;-84
2021/12/10 04:20:46;;;;;;;13.80;8.13;;;;;;;15.35;44.55;91780.19;4987277;28;20525;-84
2021/12/10 04:23:14;;;;;;;13.95;8.68;;;;;;;15.37;44.63;91781.09;4952880;28;20770;-85
2021/12/10 04:25:40;;;;;;;18.05;12.43;;;;;;;15.37;44.76;91780.38;4952771;28;20046;-84
2021/12/10 04:28:09;;;;;;;10.93;6.75;;;;;;;15.32;44.75;91778.50;4937493;28;20173;-84
2021/12/10 04:30:39;;;;;;;12.35;7.35;;;;;;;15.34;44.66;91771.28;4954432;28;20102;-85
2021/12/10 04:33:05;;;;;;;14.98;9.38;;;;;;;15.34;44.35;91768.56;4952891;28;20097;-84
2021/12/10 04:35:31;;;;;;;11.80;8.07;;;;;;;15.40;44.33;91771.13;4969359;28;20390;-84
2021/12/10 04:37:56;;;;;;;9.05;5.97;;;;;;;15.38;44.47;91762.75;4969233;28;20039;-86
2021/12/10 04:40:22;;;;;;;14.95;9.13;;;;;;;15.40;44.37;91760.97;4971278;28;20501;-84
2021/12/10 04:42:48;;;;;;;13.95;10.13;;;;;;;15.36;44.63;91765.31;4989083;28;20030;-84
2021/12/10 04:45:14;;;;;;;10.10;7.15;;;;;;;15.33;44.65;91758.94;4988002;28;20045;-84
2021/12/10 04:47:39;;;;;;;19.55;11.25;;;;;;;15.30;44.93;91753.81;5004843;28;20471;-84
2021/12/10 04:50:05;;;;;;;9.05;6.70;;;;;;;15.34;44.41;91752.22;4968966;28;20039;-89
2021/12/10 04:52:31;;;;;;;9.93;7.57;;;;;;;15.36;44.43;91752.44;4953395;28;20042;-84
2021/12/10 04:54:56;;;;;;;11.48;7.60;;;;;;;15.35;44.28;91755.69;4966185;28;20038;-84
2021/12/10 04:57:22;;;;;;;16.98;11.13;;;;;;;15.34;44.57;91748.78;4970208;28;20058;-84
2021/12/10 04:59:47;;;;;;;8.38;5.78;;;;;;;15.35;44.47;91745.53;4970791;28;20043;-84
2021/12/10 05:02:14;;;;;;;12.18;8.13;;;;;;;15.33;44.53;91745.31;4956131;28;20035;-83
2021/12/10 05:04:40;;;;;;;18.05;11.13;;;;;;;15.35;44.43;91752.94;4970974;28;20034;-84
2021/12/10 05:07:06;;;;;;;9.45;5.90;;;;;;;15.33;44.65;91748.03;4969581;28;20477;-83
2021/12/10 05:09:32;;;;;;;13.52;9.07;;;;;;;15.40;44.21;91749.34;4988307;28;20031;-84
2021/12/10 05:12:01;;;;;;;16.13;10.13;;;;;;;15.33;44.60;91742.59;4986753;28;20173;-84
2021/12/10 05:14:27;;;;;;;14.00;9.13;;;;;;;15.40;44.31;91739.19;4985939;28;20104;-85
2021/12/10 05:16:53;;;;;;;9.27;5.72;;;;;;;15.37;44.38;91740.25;4970218;28;20136;-84
2021/12/10 05:19:21;;;;;;;11.27;7.18;;;;;;;15.41;44.51;91742.63;4969853;28;20050;-86
2021/12/10 05:21:46;;;;;;;11.95;6.20;;;;;;;15.40;44.34;91730.28;4970462;28;20068;-85
2021/12/10 05:24:12;;;;;;;19.08;11.48;;;;;;;15.38;44.62;91730.09;4986498;28;20410;-87
2021/12/10 05:26:37;;;;;;;15.63;9.25;;;;;;;15.39;44.57;91728.81;4985844;28;20050;-84
2021/12/10 05:29:04;;;;;;;9.05;5.47;;;;;;;15.34;44.51;91729.72;4988277;28;20489;-84
2021/12/10 05:31:30;;;;;;;13.38;9.02;;;;;;;15.33;44.58;91728.97;5006576;28;20556;-85
2021/12/10 05:33:55;;;;;;;12.93;6.47;;;;;;;15.47;44.57;91707.84;4974125;28;20054;-84
2021/12/10 05:36:20;;;;;;;11.80;6.68;;;;;;;15.46;44.28;91711.09;4988940;28;20046;-84
2021/12/10 05:38:46;;;;;;;8.90;6.78;;;;;;;15.43;44.39;91702.72;4988788;28;20386;-83
2021/12/10 05:41:12;;;;;;;313.33;241.95;;;;;;;15.52;44.26;91703.53;4982148;28;20045;-88
2021/12/10 05:43:38;;;;;;;14.05;9.68;;;;;;;15.64;44.11;91702.00;4988813;28;20733;-89
2021/12/10 05:46:04;;;;;;;11.75;8.98;;;;;;;15.65;43.75;91706.91;5003582;28;20198;-83
2021/12/10 05:48:29;;;;;;;12.27;7.20;;;;;;;15.59;44.41;91700.88;5003965;28;20042;-82
2021/12/10 05:50:54;;;;;;;14.93;9.32;;;;;;;15.57;44.27;91700.72;4973508;28;20118;-82
2021/12/10 05:53:20;;;;;;;14.95;8.80;;;;;;;15.59;44.06;91703.59;4987759;28;20101;-86
2021/12/10 05:55:45;;;;;;;9.80;6.32;;;;;;;15.53;44.23;91699.53;4989716;28;20399;-83
2021/12/10 05:58:11;;;;;;;14.50;8.05;;;;;;;15.51;44.21;91696.63;4970630;28;20035;-85
2021/12/10 06:00:48;;;;;;;12.35;7.82;;;;;;;15.52;44.30;91703.53;4988736;28;20290;-83
2021/12/10 06:03:13;;;;;;;15.68;8.65;;;;;;;15.52;44.34;91703.53;4967646;28;20042;-83
2021/12/10 06:05:39;;;;;;;15.18;8.50;;;;;;;15.45;44.54;91699.47;4985219;28;20045;-83
2021/12/10 06:08:05;;;;;;;14.65;11.18;;;;;;;15.46;41.30;91700.94;4990854;28;20077;-84
2021/12/10 06:10:31;;;;;;;23.75;11.13;;;;;;;15.39;39.31;91705.06;4975567;28;20037;-83
2021/12/10 06:12:57;;;;;;;23.80;11.90;;;;;;;15.31;38.22;91700.81;5006110;28;20073;-86
2021/12/10 06:15:23;;;;;;;18.38;9.23;;;;;;;15.23;38.13;91700.75;4988018;28;20039;-83
2021/12/10 06:17:48;;;;;;;21.95;9.43;;;;;;;15.30;38.11;91705.53;4989781;28;20057;-83
2021/12/10 06:20:16;;;;;;;20.83;11.40;;;;;;;15.33;38.49;91699.03;4972323;28;20052;-87
2021/12/10 06:22:42;;;;;;;20.33;9.50;;;;;;;15.24;39.12;91704.19;4990030;28;20038;-83
2021/12/10 06:25:07;;;;;;;14.65;9.35;;;;;;;15.30;39.64;91694.66;4972756;28;20045;-84
2021/12/10 06:27:33;;;;;;;17.13;8.23;;;;;;;15.34;40.91;91688.88;4971176;28;20374;-84
2021/12/10 06:30:01;;;;;;;25.55;11.95;;;;;;;15.31;41.88;91685.22;4973201;28;20027;-84
2021/12/10 06:32:26;;;;;;;10.25;7.53;;;;;;;15.37;41.87;91688.53;4972609;28;20493;-82
2021/12/10 06:34:52;;;;;;;10.10;7.50;;;;;;;15.42;42.21;91684.94;4969985;28;20042;-82
2021/12/10 06:37:17;;;;;;;20.10;11.05;;;;;;;15.46;42.21;91684.59;4989738;28;20592;-85
2021/12/10 06:39:43;;;;;;;14.75;9.40;;;;;;;15.44;42.22;91687.84;4989431;28;20481;-83
2021/12/10 06:42:12;;;;;;;11.43;7.43;;;;;;;15.39;42.22;91680.56;4972769;28;20039;-83
2021/12/10 06:44:38;;;;;;;16.10;9.82;;;;;;;15.36;42.38;91678.91;4970061;28;20050;-83
2021/12/10 06:47:05;;;;;;;15.60;8.80;;;;;;;15.44;42.41;91681.69;5022622;28;20034;-82
2021/12/10 06:49:32;;;;;;;13.98;7.78;;;;;;;15.40;42.43;91684.72;5011361;28;20048;-83
2021/12/10 06:52:00;;;;;;;12.02;7.63;;;;;;;15.38;42.51;91665.47;4953267;28;20031;-83
2021/12/10 06:54:26;;;;;;;17.38;11.13;;;;;;;15.38;42.36;91672.91;5014027;28;20038;-83
2021/12/10 06:56:52;;;;;;;15.25;7.57;;;;;;;15.42;42.19;91663.16;5007370;28;20121;-83
2021/12/10 06:59:18;;;;;;;14.27;8.50;;;;;;;15.44;42.19;91662.63;4985980;28;20795;-83
2021/12/10 07:01:43;;;;;;;13.88;6.13;;;;;;;15.44;41.94;91668.06;4975751;28;20254;-83
2021/12/10 07:04:11;;;;;;;17.45;10.95;;;;;;;15.50;42.34;91663.22;4993163;28;20050;-83
2021/12/10 07:06:37;;;;;;;10.35;6.10;;;;;;;15.47;42.00;91658.09;4986751;28;20261;-83
2021/12/10 07:09:03;;;;;;;13.23;5.97;;;;;;;15.38;41.71;91651.13;4987364;28;20034;-82
2021/12/10 07:11:28;;;;;;;10.98;6.05;;;;;;;15.36;42.03;91650.97;4987295;28;20053;-84
2021/12/10 07:13:55;;;;;;;11.05;7.07;;;;;;;15.37;41.49;91636.09;5010188;28;20033;-83
2021/12/10 07:16:22;;;;;;;13.93;5.75;;;;;;;15.36;41.52;91637.34;4991924;28;20038;-83
2021/12/10 07:18:47;;;;;;;12.32;5.50;;;;;;;15.44;41.34;91629.94;4987940;28;20050;-82
2021/12/10 07:21:13;;;;;;;8.85;5.50;;;;;;;15.42;41.71;91622.31;5002966;28;20066;-82
2021/12/10 07:23:40;;;;;;;13.50;7.65;;;;;;;15.43;42.21;91612.88;4987304;28;20049;-82
2021/12/10 07:26:06;;;;;;;12.45;6.50;;;;;;;15.42;42.18;91616.88;4988114;28;20043;-84
2021/12/10 07:28:31;;;;;;;19.55;9.43;;;;;;;15.44;42.00;91608.91;4987546;28;20039;-84
2021/12/10 07:30:59;;;;;;;20.92;10.20;;;;;;;15.44;42.29;91608.16;4988116;28;20264;-83
2021/12/10 07:33:25;;;;;;;17.02;8.63;;;;;;;15.46;42.48;91597.47;5004296;28;20505;-83
2021/12/10 07:35:50;;;;;;;19.83;12.05;;;;;;;15.51;42.08;91596.59;4988579;28;20374;-84
2021/12/10 07:38:16;;;;;;;24.65;15.30;;;;;;;15.44;42.00;91597.28;4987777;28;20038;-83
2021/12/10 07:40:41;;;;;;;21.58;13.93;;;;;;;15.48;42.20;91591.50;4987015;28;20318;-83
2021/12/10 07:43:07;;;;;;;35.00;20.85;;;;;;;15.44;42.55;91584.38;4971520;28;20027;-83
2021/12/10 07:45:33;;;;;;;33.38;19.50;;;;;;;15.49;42.05;91579.34;4956298;28;20038;-83
2021/12/10 07:47:59;;;;;;;43.05;22.63;;;;;;;15.50;42.35;91584.25;4955529;28;20137;-83
2021/12/10 07:50:28;;;;;;;43.40;26.58;;;;;;;15.53;42.17;91585.91;4954675;28;20043;-83
2021/12/10 07:52:55;;;;;;;50.72;27.73;;;;;;;15.52;42.08;91575.53;4968210;28;20039;-83
2021/12/10 07:55:22;;;;;;;67.00;37.05;;;;;;;15.53;42.31;91566.84;4983373;28;20043;-85
2021/12/10 07:57:50;;;;;;;85.00;37.58;;;;;;;15.55;42.18;91560.84;5000881;28;20585;-83
2021/12/10 08:00:15;;;;;;;105.53;41.05;;;;;;;15.61;41.90;91553.28;4952218;28;20047;-83
2021/12/10 08:02:41;;;;;;;123.78;41.40;;;;;;;15.56;42.31;91563.06;5016105;28;20103;-83
2021/12/10 08:05:07;;;;;;;93.05;42.15;;;;;;;15.61;41.77;91562.16;4985172;28;20482;-83
2021/12/10 08:07:32;;;;;;;112.20;48.63;;;;;;;15.59;42.00;91544.94;4969499;28;20118;-84
2021/12/10 08:09:58;;;;;;;105.18;46.63;;;;;;;15.66;42.06;91538.78;5000661;28;20050;-83
2021/12/10 08:12:23;;;;;;;107.82;47.88;;;;;;;15.67;41.68;91532.78;4968007;28;20041;-83
2021/12/10 08:14:52;;;;;;;101.20;43.20;;;;;;;15.65;42.00;91526.41;5012116;28;20038;-83
2021/12/10 08:17:19;;;;;;;116.32;46.90;;;;;;;15.70;41.84;91531.00;5003404;28;20046;-83
2021/12/10 08:19:45;;;;;;;92.57;42.20;;;;;;;15.69;41.72;91524.81;5000557;28;20076;-87
2021/12/10 08:22:11;;;;;;;116.68;48.63;;;;;;;15.71;41.86;91519.56;4986963;28;20120;-84
2021/12/10 08:24:36;;;;;;;94.75;41.00;;;;;;;15.75;41.67;91514.50;4987337;28;20509;-84
2021/12/10 08:27:02;;;;;;;106.13;46.90;;;;;;;15.78;42.06;91512.69;4970882;28;20055;-83
2021/12/10 08:29:27;;;;;;;85.68;40.15;;;;;;;15.77;41.42;91506.50;4978096;28;20045;-85
2021/12/10 08:31:53;;;;;;;84.13;42.08;;;;;;;15.79;41.58;91503.25;4967436;28;20068;-87
2021/12/10 08:34:19;;;;;;;80.57;40.13;;;;;;;15.72;41.57;91503.94;5002921;28;20497;-84
2021/12/10 08:36:44;;;;;;;78.25;38.80;;;;;;;15.73;41.81;91506.13;4970979;28;20026;-83
2021/12/10 08:39:10;;;;;;;80.85;39.05;;;;;;;15.76;41.90;91501.59;4986578;28;20042;-84
2021/12/10 08:41:37;;;;;;;80.07;37.40;;;;;;;15.78;41.43;91496.34;4975712;28;20110;-83
2021/12/10 08:44:02;;;;;;;64.35;34.22;;;;;;;15.73;41.74;91492.50;4986847;28;20466;-82
2021/12/10 08:46:28;;;;;;;74.38;34.78;;;;;;;15.80;41.63;91490.38;4951891;28;20045;-83
2021/12/10 08:48:55;;;;;;;66.95;35.08;;;;;;;15.81;41.55;91481.63;5002172;28;20045;-83
2021/12/10 08:51:29;;;;;;;65.00;34.95;;;;;;;15.80;41.52;91476.75;4985256;28;20517;-83
2021/12/10 08:53:54;;;;;;;68.30;33.58;;;;;;;15.81;41.60;91480.88;4988232;28;20038;-83
2021/12/10 08:56:20;;;;;;;63.78;34.47;;;;;;;15.82;41.50;91463.28;4985892;28;20077;-88
2021/12/10 08:58:45;;;;;;;60.30;31.00;;;;;;;15.83;41.67;91464.72;4970871;28;20038;-82
2021/12/10 09:01:13;;;;;;;58.22;30.85;;;;;;;15.85;41.45;91462.94;4986332;28;20085;-84
2021/12/10 09:03:39;;;;;;;44.28;26.08;;;;;;;15.86;41.67;91456.22;4986742;28;20510;-84
2021/12/10 09:06:05;;;;;;;53.72;25.98;;;;;;;15.86;41.30;91453.50;4973508;28;20088;-84
2021/12/10 09:08:30;;;;;;;49.53;26.92;;;;;;;15.88;41.46;91450.22;4981048;28;20057;-87
2021/12/10 09:10:56;;;;;;;47.00;28.17;;;;;;;15.89;41.60;91446.97;5010210;28;20041;-83
2021/12/10 09:13:23;;;;;;;43.05;25.45;;;;;;;15.87;41.72;91437.88;5008008;28;20041;-83
2021/12/10 09:15:54;;;;;;;49.90;27.08;;;;;;;15.89;41.29;91432.59;4974431;28;20034;-88
2021/12/10 09:18:19;;;;;;;43.30;25.52;;;;;;;15.87;41.43;91432.41;4975089;28;20046;-83
2021/12/10 09:20:47;;;;;;;37.08;22.83;;;;;;;15.88;41.53;91425.69;5007221;28;20042;-87
2021/12/10 09:23:15;;;;;;;39.08;23.35;;;;;;;15.89;41.75;91424.44;4988639;28;20057;-83
2021/12/10 09:25:41;;;;;;;43.72;23.05;;;;;;;15.91;41.73;91425.34;5005818;28;20042;-83
2021/12/10 09:28:07;;;;;;;37.25;21.70;;;;;;;15.94;41.40;91420.81;5005853;28;20038;-83
2021/12/10 09:30:32;;;;;;;30.95;20.23;;;;;;;15.92;41.49;91418.63;5005815;28;20046;-83
2021/12/10 09:32:58;;;;;;;46.13;20.98;;;;;;;15.97;41.49;91406.13;4990057;28;20041;-83
2021/12/10 09:35:24;;;;;;;39.55;21.83;;;;;;;15.92;41.62;91402.28;4957245;28;20044;-83
2021/12/10 09:37:50;;;;;;;37.90;21.05;;;;;;;15.95;41.59;91398.47;4974041;28;20042;-90
2021/12/10 09:40:19;;;;;;;33.00;20.20;;;;;;;15.95;41.47;91382.13;4990975;28;20041;-82
2021/12/10 09:42:44;;;;;;;36.67;19.42;;;;;;;15.92;37.92;91380.50;5010043;28;20542;-87
2021/12/10 09:45:11;;;;;;;27.92;15.43;;;;;;;15.78;38.52;91373.75;4993263;28;20030;-83
2021/12/10 09:47:37;;;;;;;24.88;16.00;;;;;;;15.78;38.61;91360.13;5010189;28;20062;-88
2021/12/10 09:50:03;;;;;;;23.67;14.77;;;;;;;15.78;38.66;91371.03;4974948;28;20489;-83
2021/12/10 09:52:28;;;;;;;25.60;14.60;;;;;;;15.80;39.04;91356.88;4953593;28;20038;-85
2021/12/10 09:54:54;;;;;;;30.95;16.02;;;;;;;15.83;39.17;91359.22;5003610;28;20066;-84
2021/12/10 09:57:26;;;;;;;27.50;16.80;;;;;;;15.85;39.11;91355.94;4972838;28;20038;-83
2021/12/10 09:59:52;;;;;;;27.27;15.80;;;;;;;15.85;39.91;91351.22;4990583;28;20527;-87
2021/12/10 10:02:18;;;;;;;28.05;17.88;;;;;;;15.88;40.71;91341.25;4985691;28;20039;-83
2021/12/10 10:04:48;;;;;;;23.85;14.98;;;;;;;15.88;40.54;91352.88;5005242;28;20080;-83
2021/12/10 10:07:16;;;;;;;25.83;15.10;;;;;;;15.92;40.65;91352.50;4957891;28;20034;-83
2021/12/10 10:09:42;;;;;;;27.77;14.43;;;;;;;15.93;40.77;91332.91;4972971;28;20115;-84
2021/12/10 10:12:10;;;;;;;34.80;15.93;;;;;;;15.94;41.10;91339.81;4987415;28;20035;-84
2021/12/10 10:14:38;;;;;;;28.23;14.35;;;;;;;15.91;41.05;91324.53;5006491;28;20042;-89
2021/12/10 10:17:04;;;;;;;25.73;14.10;;;;;;;15.96;40.70;91331.09;4986806;28;20517;-85
2021/12/10 10:19:30;;;;;;;26.70;14.00;;;;;;;15.93;40.93;91332.91;4965380;28;20033;-86
2021/12/10 10:21:56;;;;;;;21.58;14.02;;;;;;;15.96;40.76;91331.09;5026267;28;20036;-86
2021/12/10 10:24:23;;;;;;;19.98;13.65;;;;;;;15.94;40.79;91320.00;4995635;28;20042;-85
2021/12/10 10:26:54;;;;;;;23.25;12.68;;;;;;;15.96;41.08;91325.63;4990303;28;20042;-84
2021/12/10 10:29:20;;;;;;;19.58;11.40;;;;;;;15.94;41.18;91323.44;4969586;28;20079;-83
2021/12/10 10:31:53;;;;;;;26.15;12.43;;;;;;;15.95;40.72;91313.28;4975868;28;20152;-83
2021/12/10 10:34:19;;;;;;;22.52;11.45;;;;;;;15.97;41.09;91316.91;4992038;28;20042;-88
2021/12/10 10:36:45;;;;;;;18.58;10.63;;;;;;;15.97;41.05;91308.00;5025636;28;20048;-83
2021/12/10 10:39:14;;;;;;;19.95;10.52;;;;;;;15.98;40.97;91309.47;5008097;28;20030;-84
2021/12/10 10:41:41;;;;;;;18.38;11.63;;;;;;;15.98;41.16;91309.47;5011284;28;20030;-84
2021/12/10 10:44:06;;;;;;;19.33;11.07;;;;;;;15.96;40.99;91315.47;4956080;28;20035;-86
2021/12/10 10:46:32;;;;;;;18.42;10.43;;;;;;;15.97;41.15;91316.19;4990127;28;20030;-88
2021/12/10 10:48:58;;;;;;;15.18;10.45;;;;;;;15.97;41.29;91319.63;4962550;28;20034;-87
2021/12/10 10:51:40;;;;;;;12.30;8.85;;;;;;;16.01;41.13;91308.38;5008662;28;20041;-84
2021/12/10 10:54:07;;;;;;;16.38;10.52;;;;;;;15.98;41.12;91307.47;4992183;28;20041;-84
2021/12/10 10:56:36;;;;;;;80.18;56.92;;;;;;;16.02;41.22;91302.34;4973599;28;20027;-85
2021/12/10 10:59:09;;;;;;;82.78;56.67;;;;;;;16.05;41.20;91300.53;4973494;28;20084;-87
2021/12/10 11:01:44;;;;;;;18.15;12.57;;;;;;;16.09;41.39;91301.63;4974359;28;20527;-82
2021/12/10 11:04:17;;;;;;;15.07;9.60;;;;;;;16.10;41.43;91288.72;4988312;28;20561;-83
2021/12/10 11:06:47;;;;;;;144.40;101.30;;;;;;;16.12;40.69;91297.09;4986635;28;20039;-83
2021/12/10 11:09:19;;;;;;;25.45;17.13;;;;;;;16.08;41.05;91291.28;5001058;28;20042;-83
2021/12/10 11:11:49;;;;;;;27.52;12.73;;;;;;;16.16;41.05;91288.56;5000795;28;20047;-84
2021/12/10 11:14:16;;;;;;;22.90;11.20;;;;;;;16.08;41.14;91283.09;5004540;28;20038;-84
2021/12/10 11:16:43;;;;;;;20.17;12.90;;;;;;;16.01;41.19;91289.31;4987779;28;21071;-86
2021/12/10 11:19:12;;;;;;;12.85;10.07;;;;;;;16.01;40.70;91287.31;4984825;28;20133;-85
2021/12/10 11:21:43;;;;;;;19.05;9.43;;;;;;;16.06;40.86;91283.66;4987693;28;20064;-85
2021/12/10 11:24:21;;;;;;;12.90;9.02;;;;;;;16.03;40.93;91273.09;4995655;28;20135;-85
2021/12/10 11:26:56;;;;;;;14.25;8.50;;;;;;;16.05;40.91;91279.47;4971847;28;20042;-83